createdAt,value
2022-10-09T00:06:57.338Z,18.10
2022-10-09T00:17:00.980Z,18.10
2022-10-09T00:27:06.169Z,18.10
2022-10-09T00:37:09.957Z,18.10
2022-10-09T00:47:20.306Z,17.90
2022-10-09T00:57:24.081Z,17.80
2022-10-09T01:07:40.450Z,17.90
2022-10-09T01:17:51.362Z,18.10
2022-10-09T01:27:58.118Z,17.80
2022-10-09T01:38:03.240Z,17.40
2022-10-09T01:48:11.223Z,17.30
2022-10-09T01:58:21.318Z,17.20
2022-10-09T02:08:27.172Z,17.30
2022-10-09T02:18:38.515Z,17.40
2022-10-09T02:28:45.959Z,17.40
2022-10-09T02:38:49.808Z,17.50
2022-10-09T02:48:55.031Z,17.40
2022-10-09T02:58:58.899Z,17.30
2022-10-09T03:09:04.097Z,17.30
2022-10-09T03:19:07.723Z,17.40
2022-10-09T03:29:12.749Z,17.30
2022-10-09T03:39:16.417Z,17.30
2022-10-09T03:49:21.446Z,17.30
2022-10-09T03:59:25.064Z,17.30
2022-10-09T04:09:30.110Z,17.30
2022-10-09T04:19:34.076Z,17.20
2022-10-09T04:29:39.738Z,17.40
2022-10-09T04:39:43.397Z,17.20
2022-10-09T04:49:48.872Z,17.10
2022-10-09T04:59:52.558Z,17.20
2022-10-09T05:09:57.625Z,17.30
2022-10-09T05:20:01.545Z,17.50
2022-10-09T05:30:07.804Z,17.60
2022-10-09T05:40:11.731Z,17.60
2022-10-09T05:50:17.083Z,17.50
2022-10-09T06:00:21.060Z,17.30
2022-10-09T06:10:30.256Z,17.20
2022-10-09T06:20:36.114Z,17.10
2022-10-09T06:30:41.107Z,17.00
2022-10-09T06:40:45.079Z,17.00
2022-10-09T06:50:50.207Z,17.10
2022-10-09T07:01:04.561Z,17.30
2022-10-09T07:11:14.036Z,17.40
2022-10-09T07:21:18.170Z,17.80
2022-10-09T07:31:23.989Z,18.30
2022-10-09T07:41:29.862Z,18.60
2022-10-09T07:51:35.098Z,19.10
2022-10-09T08:01:38.890Z,19.30
2022-10-09T08:11:44.838Z,19.80
2022-10-09T08:21:48.520Z,20.10
2022-10-09T08:31:53.727Z,20.30
2022-10-09T08:41:57.906Z,21.40
2022-10-09T08:52:12.285Z,21.50
2022-10-09T09:02:33.891Z,21.20
2022-10-09T09:12:48.461Z,21.10
2022-10-09T09:22:52.644Z,21.40
2022-10-09T09:33:03.368Z,21.50
2022-10-09T09:43:16.510Z,21.50
2022-10-09T09:53:29.095Z,21.60
2022-10-09T10:03:33.872Z,22.00
2022-10-09T10:13:40.489Z,22.80
2022-10-09T10:23:50.201Z,22.80
2022-10-09T10:33:57.826Z,23.20
2022-10-09T10:44:08.266Z,23.40
2022-10-09T10:54:24.943Z,24.30
2022-10-09T11:04:38.173Z,24.40
2022-10-09T11:14:51.550Z,25.10
2022-10-09T11:25:10.688Z,25.50
2022-10-09T11:35:21.480Z,25.60
2022-10-09T11:45:31.254Z,26.00
2022-10-09T11:55:36.611Z,26.10
2022-10-09T12:05:43.215Z,25.90
2022-10-09T12:15:56.798Z,26.00
2022-10-09T12:26:01.866Z,26.10
2022-10-09T12:36:13.533Z,26.30
2022-10-09T12:46:27.845Z,26.10
2022-10-09T12:56:36.172Z,26.50
2022-10-09T13:06:45.844Z,26.60
2022-10-09T13:16:51.047Z,27.10
2022-10-09T13:26:54.769Z,26.80
2022-10-09T13:36:59.941Z,27.40
2022-10-09T13:47:03.625Z,27.50
2022-10-09T13:57:08.828Z,27.70
2022-10-09T14:07:12.908Z,27.90
2022-10-09T14:17:18.101Z,28.00
2022-10-09T14:27:22.200Z,27.90
2022-10-09T14:37:40.950Z,28.10
2022-10-09T14:47:45.579Z,27.30
2022-10-09T14:57:50.643Z,27.70
2022-10-09T15:07:54.287Z,27.70
2022-10-09T15:18:00.970Z,27.30
2022-10-09T15:28:05.022Z,27.10
2022-10-09T15:38:15.451Z,25.40
2022-10-09T15:48:20.467Z,24.60
2022-10-09T15:58:25.442Z,23.50
2022-10-09T16:08:29.969Z,23.40
2022-10-09T16:18:35.157Z,23.10
2022-10-09T16:28:39.164Z,23.10
2022-10-09T16:38:44.754Z,22.90
2022-10-09T16:48:48.844Z,22.80
2022-10-09T16:58:57.094Z,22.50
2022-10-09T17:09:01.264Z,22.20
2022-10-09T17:19:07.428Z,22.40
2022-10-09T17:29:12.070Z,22.30
2022-10-09T17:39:18.515Z,22.10
2022-10-09T17:49:22.177Z,22.10
2022-10-09T17:59:27.417Z,22.00
2022-10-09T18:09:31.072Z,22.00
2022-10-09T18:19:36.138Z,21.80
2022-10-09T18:29:39.774Z,21.80
2022-10-09T18:39:44.790Z,21.10
2022-10-09T18:49:53.738Z,20.50
2022-10-09T18:59:59.671Z,20.10
2022-10-09T19:10:04.802Z,19.90
2022-10-09T19:20:10.423Z,19.70
2022-10-09T19:30:15.325Z,19.60
2022-10-09T19:40:20.355Z,19.40
2022-10-09T19:50:24.178Z,19.40
2022-10-09T20:00:29.996Z,19.50
2022-10-09T20:10:36.093Z,19.80
2022-10-09T20:20:41.186Z,19.70
2022-10-09T20:30:44.757Z,19.80
2022-10-09T20:40:50.044Z,19.90
2022-10-09T20:50:53.684Z,20.00
2022-10-09T21:00:58.975Z,20.10
2022-10-09T21:11:05.427Z,20.10
2022-10-09T21:21:12.516Z,20.20
2022-10-09T21:31:19.556Z,20.50
2022-10-09T21:41:25.316Z,20.60
2022-10-09T21:51:29.382Z,20.50
2022-10-09T22:01:35.194Z,21.10
2022-10-09T22:11:39.196Z,21.10
2022-10-09T22:21:44.407Z,21.40
2022-10-09T22:31:47.978Z,21.20
2022-10-09T22:41:53.316Z,21.10
2022-10-09T22:51:56.929Z,21.40
2022-10-09T23:02:02.016Z,21.40
2022-10-09T23:12:05.920Z,21.00
2022-10-09T23:22:10.914Z,20.80
2022-10-09T23:32:14.709Z,20.90
2022-10-09T23:42:20.060Z,21.20
2022-10-09T23:52:23.730Z,21.00
